Time;durP1;ratioP1;P1;durP2;ratioP2;P2;SDS_P1;SDS_P2;PMS_P1;PMS_P2;Temp;Humidity;BMP_temperature;BMP_pressure;BME280_temperature;BME280_humidity;BME280_pressure;Samples;Min_cycle;Max_cycle;Signal;HPM_P1;HPM_P2
2021/12/03 00:00:43;;;;;;;131.30;55.90;;;-0.30;99.90;;;;;;5069717;28;20151;-70
2021/12/03 00:03:09;;;;;;;140.45;60.85;;;-0.20;99.90;;;;;;5069362;28;20095;-70
2021/12/03 00:05:35;;;;;;;148.90;62.47;;;-0.20;99.90;;;;;;5069623;28;20541;-70
2021/12/03 00:08:01;;;;;;;139.52;62.63;;;-0.10;99.90;;;;;;5068948;28;20082;-70
2021/12/03 00:10:27;;;;;;;156.95;66.93;;;0.00;99.90;;;;;;5069169;28;20075;-70
2021/12/03 00:12:54;;;;;;;144.30;62.03;;;0.10;99.90;;;;;;5070611;28;20025;-72
2021/12/03 00:15:25;;;;;;;151.57;61.85;;;0.10;99.90;;;;;;5070300;28;20098;-70
2021/12/03 00:17:51;;;;;;;168.18;66.30;;;0.10;99.90;;;;;;5070522;28;20047;-71
2021/12/03 00:20:18;;;;;;;202.52;76.15;;;0.20;99.90;;;;;;5070456;28;20048;-71
2021/12/03 00:22:46;;;;;;;239.48;77.88;;;0.30;99.90;;;;;;5070136;28;20024;-71
2021/12/03 00:25:11;;;;;;;219.07;79.18;;;0.30;99.90;;;;;;5068534;28;20033;-71
2021/12/03 00:27:38;;;;;;;266.77;84.55;;;0.40;99.90;;;;;;5052011;28;20021;-71
2021/12/03 00:30:07;;;;;;;259.42;85.30;;;0.30;99.90;;;;;;5051702;28;20048;-71
2021/12/03 00:32:33;;;;;;;274.23;83.93;;;0.30;99.90;;;;;;5052173;28;20024;-71
2021/12/03 00:34:59;;;;;;;301.45;88.78;;;0.40;99.90;;;;;;5069546;28;20438;-70
2021/12/03 00:37:25;;;;;;;319.73;89.13;;;0.40;99.90;;;;;;5051998;28;20021;-70
2021/12/03 00:39:51;;;;;;;342.58;91.18;;;0.40;99.90;;;;;;5067959;28;20032;-70
2021/12/03 00:42:18;;;;;;;335.02;88.00;;;0.40;99.90;;;;;;5054987;28;20036;-71
2021/12/03 00:44:49;;;;;;;309.67;88.40;;;0.40;99.90;;;;;;5038543;28;20363;-70
2021/12/03 00:47:15;;;;;;;398.90;92.82;;;0.40;99.90;;;;;;5054904;28;20033;-70
2021/12/03 00:49:40;;;;;;;338.10;87.78;;;0.40;99.90;;;;;;5055478;28;20017;-71
2021/12/03 00:52:07;;;;;;;350.25;90.65;;;0.50;99.90;;;;;;5056520;28;20354;-71
2021/12/03 00:54:32;;;;;;;420.30;92.95;;;0.50;99.90;;;;;;5055426;28;20033;-71
2021/12/03 00:56:58;;;;;;;444.75;100.60;;;0.50;99.90;;;;;;5055094;28;20079;-71
2021/12/03 00:59:25;;;;;;;414.40;97.75;;;0.50;99.90;;;;;;5055493;28;20115;-71
2021/12/03 01:01:50;;;;;;;363.20;92.57;;;0.50;99.90;;;;;;5056476;28;20033;-71
2021/12/03 01:04:16;;;;;;;395.80;97.65;;;0.50;99.90;;;;;;5038000;28;20121;-71
2021/12/03 01:06:42;;;;;;;423.33;98.30;;;0.50;99.90;;;;;;5056385;28;20071;-71
2021/12/03 01:09:08;;;;;;;387.30;94.45;;;0.60;99.90;;;;;;5055131;28;20052;-72
2021/12/03 01:11:34;;;;;;;392.65;98.15;;;0.60;99.90;;;;;;5054436;28;20025;-72
2021/12/03 01:14:00;;;;;;;437.80;97.07;;;0.60;99.90;;;;;;5056233;28;20104;-72
2021/12/03 01:16:28;;;;;;;427.48;99.30;;;0.60;99.90;;;;;;5055866;28;20028;-72
2021/12/03 01:18:54;;;;;;;466.30;102.18;;;0.60;99.90;;;;;;5055572;28;20060;-72
2021/12/03 01:21:19;;;;;;;444.95;102.22;;;0.60;99.90;;;;;;5038267;28;20075;-72
2021/12/03 01:23:46;;;;;;;441.40;98.97;;;0.60;99.90;;;;;;5056052;28;20021;-72
2021/12/03 01:26:13;;;;;;;450.35;98.95;;;0.70;99.90;;;;;;5055717;28;20354;-71
2021/12/03 01:28:39;;;;;;;463.83;97.63;;;0.70;99.90;;;;;;5054549;28;20044;-72
2021/12/03 01:31:04;;;;;;;439.30;96.70;;;0.70;99.90;;;;;;5054086;28;20091;-72
2021/12/03 01:33:30;;;;;;;397.88;93.38;;;0.70;99.90;;;;;;5054635;28;20045;-71
2021/12/03 01:35:56;;;;;;;392.35;93.93;;;0.70;99.90;;;;;;5037974;28;20021;-72
2021/12/03 01:38:21;;;;;;;382.35;96.60;;;0.70;99.90;;;;;;5054032;28;20485;-72
2021/12/03 01:40:47;;;;;;;383.98;88.22;;;0.80;99.90;;;;;;5055387;28;20154;-71
2021/12/03 01:43:20;;;;;;;379.15;94.18;;;0.80;99.90;;;;;;5037344;28;20436;-72
2021/12/03 01:45:46;;;;;;;;;;;0.80;99.90;;;;;;5039219;28;20021;-71
2021/12/03 01:48:12;;;;;;;344.90;85.15;;;0.80;99.90;;;;;;5054079;28;19909;-71
2021/12/03 01:50:41;;;;;;;369.30;90.43;;;0.80;99.90;;;;;;5054013;28;20029;-71
2021/12/03 01:53:08;;;;;;;360.67;90.95;;;0.80;99.90;;;;;;5053364;28;20340;-71
2021/12/03 01:55:34;;;;;;;346.00;90.60;;;0.90;99.90;;;;;;5036916;28;20067;-71
2021/12/03 01:58:01;;;;;;;362.30;89.88;;;0.90;99.90;;;;;;5037835;28;20021;-72
2021/12/03 02:00:31;;;;;;;351.58;91.90;;;0.90;99.90;;;;;;5055360;28;20036;-71
2021/12/03 02:02:58;;;;;;;345.02;90.50;;;0.90;99.90;;;;;;5037259;28;20052;-70
2021/12/03 02:05:24;;;;;;;323.20;92.20;;;0.90;99.90;;;;;;5053733;28;20029;-71
2021/12/03 02:07:50;;;;;;;330.92;91.25;;;0.90;99.90;;;;;;5055226;28;20021;-71
2021/12/03 02:10:18;;;;;;;333.02;92.25;;;1.00;99.90;;;;;;5053378;28;20040;-71
2021/12/03 02:12:45;;;;;;;312.38;88.00;;;1.00;99.90;;;;;;5055076;28;20021;-72
2021/12/03 02:15:11;;;;;;;303.83;87.18;;;0.90;99.90;;;;;;5053200;28;20382;-71
2021/12/03 02:17:37;;;;;;;332.48;90.50;;;1.00;99.90;;;;;;5053722;28;20029;-72
2021/12/03 02:20:06;;;;;;;308.83;89.22;;;1.00;99.90;;;;;;5053203;28;20031;-71
2021/12/03 02:22:31;;;;;;;288.33;83.40;;;1.00;99.90;;;;;;5054641;28;20029;-71
2021/12/03 02:24:57;;;;;;;288.92;85.30;;;1.00;99.90;;;;;;5036504;28;20036;-71
2021/12/03 02:27:22;;;;;;;281.77;83.10;;;1.00;99.90;;;;;;5053375;28;20516;-72
2021/12/03 02:29:48;;;;;;;271.80;80.03;;;1.10;99.90;;;;;;5052862;28;20052;-71
2021/12/03 02:32:14;;;;;;;257.45;80.72;;;1.10;99.90;;;;;;5052940;28;20055;-71
2021/12/03 02:34:39;;;;;;;262.20;78.88;;;1.10;99.90;;;;;;5054686;28;20021;-71
2021/12/03 02:37:05;;;;;;;254.38;76.22;;;1.10;99.90;;;;;;5036334;28;20120;-72
2021/12/03 02:39:31;;;;;;;250.73;77.38;;;1.10;99.90;;;;;;5054595;28;20033;-71
2021/12/03 02:41:56;;;;;;;246.85;77.50;;;1.10;99.90;;;;;;5036152;28;20035;-71
2021/12/03 02:44:22;;;;;;;235.85;73.63;;;1.10;99.90;;;;;;5053361;28;20025;-71
2021/12/03 02:46:48;;;;;;;214.95;68.45;;;1.10;99.90;;;;;;5054213;28;20029;-71
2021/12/03 02:49:15;;;;;;;202.30;67.15;;;1.10;99.90;;;;;;5052557;28;20025;-71
2021/12/03 02:51:42;;;;;;;197.40;67.40;;;1.10;99.90;;;;;;5052633;28;20028;-70
2021/12/03 02:54:08;;;;;;;207.13;70.05;;;1.10;99.90;;;;;;5053159;28;20023;-71
2021/12/03 02:56:34;;;;;;;190.43;66.45;;;1.10;99.90;;;;;;5054306;28;20032;-71
2021/12/03 02:59:00;;;;;;;191.38;65.20;;;1.10;99.90;;;;;;5053348;28;20033;-72
2021/12/03 03:01:26;;;;;;;169.93;64.00;;;1.20;99.90;;;;;;5053958;28;20104;-71
2021/12/03 03:03:51;;;;;;;159.50;62.63;;;1.20;99.90;;;;;;5053440;28;20029;-71
2021/12/03 03:06:17;;;;;;;165.43;60.60;;;1.20;99.90;;;;;;5052418;28;20025;-71
2021/12/03 03:08:44;;;;;;;150.60;59.22;;;1.20;99.90;;;;;;5053798;28;20053;-71
2021/12/03 03:11:11;;;;;;;148.20;58.42;;;1.20;99.90;;;;;;5052421;28;20017;-71
2021/12/03 03:13:37;;;;;;;142.68;57.35;;;1.20;99.90;;;;;;5054111;28;20027;-72
2021/12/03 03:16:05;;;;;;;132.68;53.15;;;1.20;99.90;;;;;;5053765;28;20035;-72
2021/12/03 03:18:31;;;;;;;115.30;47.88;;;1.20;99.90;;;;;;5052600;28;20472;-71
2021/12/03 03:21:00;;;;;;;120.93;51.25;;;1.20;99.90;;;;;;5053716;28;20024;-71
2021/12/03 03:23:26;;;;;;;117.25;48.38;;;1.20;99.90;;;;;;5035586;28;20032;-72
2021/12/03 03:25:52;;;;;;;113.40;47.78;;;1.20;99.90;;;;;;5053937;28;20393;-72
2021/12/03 03:28:20;;;;;;;114.47;48.47;;;1.20;99.90;;;;;;5035335;28;20021;-73
2021/12/03 03:30:48;;;;;;;118.93;47.72;;;1.20;99.90;;;;;;5035671;28;20378;-72
2021/12/03 03:33:15;;;;;;;112.43;46.63;;;1.20;99.90;;;;;;5035481;28;20033;-71
2021/12/03 03:35:41;;;;;;;112.03;47.63;;;1.20;99.90;;;;;;5035592;28;20051;-72
2021/12/03 03:38:08;;;;;;;113.93;47.13;;;1.20;99.90;;;;;;5052326;28;20029;-72
2021/12/03 03:40:35;;;;;;;116.65;48.85;;;1.20;99.90;;;;;;5035412;28;20123;-72
2021/12/03 03:43:02;;;;;;;106.63;46.10;;;1.20;99.90;;;;;;5035883;28;20339;-71
2021/12/03 03:45:29;;;;;;;113.65;48.08;;;1.20;99.90;;;;;;5052091;28;20029;-72
2021/12/03 03:47:55;;;;;;;116.55;48.40;;;1.20;99.90;;;;;;5052648;28;20025;-72
2021/12/03 03:50:22;;;;;;;121.75;52.83;;;1.20;99.90;;;;;;5051564;28;20491;-72
2021/12/03 03:52:49;;;;;;;108.75;47.10;;;1.30;99.90;;;;;;5053729;28;20027;-71
2021/12/03 03:55:16;;;;;;;118.07;49.97;;;1.30;99.90;;;;;;5052221;28;20100;-72
2021/12/03 03:57:44;;;;;;;115.13;50.72;;;1.30;99.90;;;;;;5053126;28;20029;-72
2021/12/03 04:00:14;;;;;;;117.20;48.28;;;1.30;99.90;;;;;;5052191;28;20025;-72
2021/12/03 04:02:40;;;;;;;115.07;49.92;;;1.30;99.90;;;;;;5035443;28;20108;-72
2021/12/03 04:05:07;;;;;;;119.05;49.33;;;1.30;99.90;;;;;;5052140;28;20104;-72
2021/12/03 04:07:32;;;;;;;112.53;49.03;;;1.30;99.90;;;;;;5051746;28;20040;-72
2021/12/03 04:09:58;;;;;;;114.13;47.38;;;1.40;99.90;;;;;;5035108;28;20025;-71
2021/12/03 04:12:24;;;;;;;118.15;47.70;;;1.40;99.90;;;;;;5053490;28;20025;-71
2021/12/03 04:14:49;;;;;;;105.63;45.83;;;1.40;99.90;;;;;;5052974;28;20025;-71
2021/12/03 04:17:15;;;;;;;115.20;45.50;;;1.50;99.90;;;;;;5038332;28;20025;-72
2021/12/03 04:19:43;;;;;;;109.57;47.78;;;1.40;99.90;;;;;;5055535;28;20025;-72
2021/12/03 04:22:09;;;;;;;121.28;49.25;;;1.50;99.90;;;;;;5056936;28;20017;-71
2021/12/03 04:24:35;;;;;;;115.35;45.65;;;1.50;99.90;;;;;;5057171;28;20051;-72
2021/12/03 04:27:00;;;;;;;118.85;47.47;;;1.50;99.90;;;;;;5057103;28;20059;-72
2021/12/03 04:29:26;;;;;;;120.22;47.83;;;1.50;99.90;;;;;;5055370;28;20490;-72
2021/12/03 04:31:51;;;;;;;116.50;47.67;;;1.50;99.90;;;;;;5055559;28;20492;-73
2021/12/03 04:34:17;;;;;;;107.70;45.35;;;1.60;99.90;;;;;;5038578;28;20029;-72
2021/12/03 04:36:42;;;;;;;111.18;46.58;;;1.60;99.90;;;;;;5055156;28;20017;-72
2021/12/03 04:39:08;;;;;;;112.18;45.47;;;1.60;99.90;;;;;;5038517;28;20024;-72
2021/12/03 04:41:33;;;;;;;111.93;47.65;;;1.70;99.90;;;;;;5055044;28;20040;-72
2021/12/03 04:43:59;;;;;;;113.80;45.88;;;1.70;99.90;;;;;;5054988;28;20052;-72
2021/12/03 04:46:25;;;;;;;109.40;44.60;;;1.70;99.90;;;;;;5055348;28;20496;-72
2021/12/03 04:48:50;;;;;;;107.13;44.38;;;1.70;99.90;;;;;;5055240;28;20434;-72
2021/12/03 04:51:16;;;;;;;105.95;44.42;;;1.80;99.90;;;;;;5055250;28;20382;-71
2021/12/03 04:53:41;;;;;;;111.18;44.53;;;1.80;99.90;;;;;;5055192;28;20036;-72
2021/12/03 04:56:07;;;;;;;101.65;42.08;;;1.80;99.90;;;;;;5054857;28;20025;-71
2021/12/03 04:58:33;;;;;;;109.47;44.80;;;1.80;99.90;;;;;;5055064;28;20021;-71
2021/12/03 05:00:59;;;;;;;109.53;44.75;;;1.80;99.90;;;;;;5054670;28;20412;-71
2021/12/03 05:03:26;;;;;;;118.38;46.97;;;1.80;99.90;;;;;;5055281;28;20519;-72
2021/12/03 05:05:56;;;;;;;108.60;44.72;;;1.80;99.90;;;;;;5056410;28;20033;-72
2021/12/03 05:08:23;;;;;;;99.18;40.97;;;1.80;99.90;;;;;;5054957;28;20021;-71
2021/12/03 05:10:49;;;;;;;99.40;38.30;;;1.80;99.90;;;;;;5055092;28;20029;-72
2021/12/03 05:13:17;;;;;;;94.05;38.85;;;1.80;99.90;;;;;;5054521;28;20151;-72
2021/12/03 05:15:44;;;;;;;96.68;40.08;;;1.80;99.90;;;;;;5037776;28;20017;-72
2021/12/03 05:18:12;;;;;;;94.45;39.90;;;1.90;99.90;;;;;;5037928;28;20018;-72
2021/12/03 05:20:39;;;;;;;106.30;43.22;;;1.90;99.90;;;;;;5054557;28;20040;-72
2021/12/03 05:23:05;;;;;;;101.47;41.53;;;1.90;99.90;;;;;;5037795;28;20028;-72
2021/12/03 05:25:31;;;;;;;99.05;40.05;;;1.90;99.90;;;;;;5054244;28;20029;-72
2021/12/03 05:27:57;;;;;;;96.75;41.17;;;1.90;99.90;;;;;;5037629;28;20482;-72
2021/12/03 05:30:23;;;;;;;95.90;38.08;;;1.90;99.90;;;;;;5037374;28;20079;-72
2021/12/03 05:32:49;;;;;;;98.30;38.50;;;1.90;99.90;;;;;;5038400;28;20028;-72
2021/12/03 05:35:15;;;;;;;95.20;39.33;;;1.90;99.90;;;;;;5054456;28;20074;-72
2021/12/03 05:37:41;;;;;;;93.20;37.45;;;1.90;99.90;;;;;;5037678;28;20533;-72
2021/12/03 05:40:09;;;;;;;88.22;37.08;;;1.90;99.90;;;;;;5053939;28;20024;-72
2021/12/03 05:42:36;;;;;;;96.05;36.45;;;1.90;99.90;;;;;;5055673;28;20490;-72
2021/12/03 05:45:04;;;;;;;97.65;37.45;;;1.90;99.90;;;;;;5053839;28;20035;-72
2021/12/03 05:47:29;;;;;;;97.05;36.55;;;2.00;99.90;;;;;;5055551;28;20481;-72
2021/12/03 05:49:55;;;;;;;101.75;38.45;;;1.90;99.90;;;;;;5054066;28;20060;-72
2021/12/03 05:52:20;;;;;;;102.55;37.25;;;1.90;99.90;;;;;;5037106;28;20021;-71
2021/12/03 05:54:46;;;;;;;92.93;38.88;;;2.00;99.90;;;;;;5054051;28;20051;-71
2021/12/03 05:57:12;;;;;;;91.90;37.13;;;2.00;99.90;;;;;;5055438;28;20025;-71
2021/12/03 05:59:37;;;;;;;97.53;40.08;;;2.00;99.90;;;;;;5054786;28;20505;-72
2021/12/03 06:02:03;;;;;;;98.72;40.20;;;2.00;99.90;;;;;;5054292;28;20029;-72
2021/12/03 06:04:29;;;;;;;93.75;37.63;;;2.00;99.90;;;;;;5036856;28;20068;-72
2021/12/03 06:06:56;;;;;;;91.22;36.60;;;2.00;99.90;;;;;;5036877;28;20444;-72
2021/12/03 06:09:21;;;;;;;82.32;33.78;;;2.00;99.90;;;;;;5053378;28;20481;-72
2021/12/03 06:11:47;;;;;;;85.22;33.40;;;2.10;99.90;;;;;;5053730;28;20059;-73
2021/12/03 06:14:12;;;;;;;82.45;33.25;;;2.10;99.90;;;;;;5054815;28;20104;-72
2021/12/03 06:16:38;;;;;;;85.28;33.67;;;2.10;99.90;;;;;;5055031;28;20032;-73
2021/12/03 06:19:04;;;;;;;77.50;31.70;;;2.10;99.90;;;;;;5054447;28;20040;-72
2021/12/03 06:21:29;;;;;;;80.57;33.70;;;2.10;99.90;;;;;;5036554;28;20025;-72
2021/12/03 06:23:55;;;;;;;80.00;34.85;;;2.20;99.90;;;;;;5053752;28;20032;-72
2021/12/03 06:26:21;;;;;;;76.22;30.98;;;2.10;99.90;;;;;;5053713;28;20029;-72
2021/12/03 06:28:47;;;;;;;79.15;31.70;;;2.10;99.90;;;;;;5054449;28;20406;-73
2021/12/03 06:31:13;;;;;;;70.07;29.25;;;2.20;99.90;;;;;;5053220;28;20021;-73
2021/12/03 06:33:38;;;;;;;78.80;30.70;;;2.20;99.90;;;;;;5036333;28;20021;-73
2021/12/03 06:36:04;;;;;;;73.55;29.50;;;2.20;99.90;;;;;;5036497;28;20116;-73
2021/12/03 06:38:31;;;;;;;73.00;29.25;;;2.20;99.90;;;;;;5052766;28;20025;-73
2021/12/03 06:40:57;;;;;;;68.90;29.65;;;2.20;99.90;;;;;;5052706;28;20025;-72
2021/12/03 06:43:23;;;;;;;64.43;28.45;;;2.30;99.90;;;;;;5054508;28;20374;-72
2021/12/03 06:45:48;;;;;;;66.13;29.88;;;2.20;99.90;;;;;;5053931;28;20021;-73
2021/12/03 06:48:14;;;;;;;76.93;30.40;;;2.30;99.90;;;;;;5052959;28;20025;-72
2021/12/03 06:50:40;;;;;;;79.45;32.00;;;2.30;99.90;;;;;;5054208;28;20021;-72
2021/12/03 06:53:09;;;;;;;79.07;30.55;;;2.30;99.90;;;;;;5054119;28;20029;-72
2021/12/03 06:55:46;;;;;;;67.80;28.73;;;2.30;99.90;;;;;;5054034;28;20021;-73
2021/12/03 06:58:14;;;;;;;68.85;30.85;;;2.30;99.90;;;;;;5038185;28;20430;-72
2021/12/03 07:00:40;;;;;;;79.03;28.92;;;2.30;99.90;;;;;;5035809;28;20032;-72
2021/12/03 07:03:06;;;;;;;72.43;31.05;;;2.30;99.90;;;;;;5052779;28;20033;-73
2021/12/03 07:05:31;;;;;;;73.78;31.73;;;2.40;99.90;;;;;;5053836;28;20032;-73
2021/12/03 07:07:57;;;;;;;72.07;31.48;;;2.40;99.90;;;;;;5054064;28;20112;-72
2021/12/03 07:10:22;;;;;;;71.68;30.45;;;2.50;99.90;;;;;;5053953;28;20033;-71
2021/12/03 07:12:48;;;;;;;67.40;30.33;;;2.50;99.90;;;;;;5054063;28;20021;-71
2021/12/03 07:15:14;;;;;;;67.82;29.88;;;2.50;99.90;;;;;;5054014;28;20105;-72
2021/12/03 07:17:39;;;;;;;60.38;26.67;;;2.50;99.90;;;;;;5053462;28;20024;-72
2021/12/03 07:20:07;;;;;;;63.08;27.90;;;2.50;99.90;;;;;;5051981;28;20032;-72
2021/12/03 07:22:33;;;;;;;63.22;28.38;;;2.60;99.90;;;;;;5034945;28;20029;-72
2021/12/03 07:24:58;;;;;;;62.95;26.80;;;2.60;99.90;;;;;;5052060;28;20055;-72
2021/12/03 07:27:25;;;;;;;66.30;29.20;;;2.60;99.90;;;;;;5035485;28;20390;-72
2021/12/03 07:29:51;;;;;;;62.97;26.90;;;2.60;99.90;;;;;;5052902;28;20037;-72
2021/12/03 07:32:19;;;;;;;68.80;27.90;;;2.60;99.90;;;;;;5052255;28;20021;-72
2021/12/03 07:34:45;;;;;;;70.72;28.48;;;2.60;99.90;;;;;;5052842;28;20036;-73
2021/12/03 07:37:11;;;;;;;65.65;28.23;;;2.70;99.90;;;;;;5052584;28;21239;-72
2021/12/03 07:39:38;;;;;;;69.38;29.88;;;2.70;99.90;;;;;;5052260;28;20060;-72
2021/12/03 07:42:04;;;;;;;65.70;27.42;;;2.70;99.90;;;;;;5034155;28;20416;-72
2021/12/03 07:44:29;;;;;;;62.05;28.17;;;2.70;99.90;;;;;;5052866;28;20023;-72
2021/12/03 07:46:55;;;;;;;61.13;27.95;;;2.70;99.90;;;;;;5035299;28;20028;-71
2021/12/03 07:49:22;;;;;;;64.35;28.92;;;2.70;99.90;;;;;;5051567;28;20025;-72
2021/12/03 07:51:48;;;;;;;72.28;30.90;;;2.70;99.90;;;;;;5044083;28;20530;-72
2021/12/03 07:54:14;;;;;;;70.30;29.90;;;2.80;99.90;;;;;;5055194;28;20017;-72
2021/12/03 07:56:39;;;;;;;67.25;30.63;;;2.80;99.90;;;;;;5055585;28;20027;-71
2021/12/03 07:59:05;;;;;;;66.80;29.90;;;2.80;99.90;;;;;;5057040;28;20108;-71
2021/12/03 08:01:32;;;;;;;70.70;29.92;;;2.80;99.90;;;;;;5055719;28;20048;-71
2021/12/03 08:03:58;;;;;;;67.78;29.48;;;2.80;99.90;;;;;;5057466;28;20029;-71
2021/12/03 08:06:24;;;;;;;61.50;28.60;;;2.80;99.90;;;;;;5054723;28;20474;-71
2021/12/03 08:08:49;;;;;;;68.93;30.13;;;2.80;99.90;;;;;;5022418;28;20033;-71
2021/12/03 08:11:15;;;;;;;70.22;30.38;;;2.90;99.90;;;;;;5036008;28;20112;-71
2021/12/03 08:13:41;;;;;;;69.82;30.00;;;2.90;99.90;;;;;;5055128;28;20466;-71
2021/12/03 08:16:06;;;;;;;64.40;30.60;;;2.90;99.90;;;;;;5039057;28;20374;-71
2021/12/03 08:18:32;;;;;;;69.55;28.98;;;2.90;99.90;;;;;;5054848;28;20029;-71
2021/12/03 08:20:58;;;;;;;68.43;30.52;;;2.90;99.90;;;;;;5055713;28;20025;-72
2021/12/03 08:23:24;;;;;;;69.88;29.00;;;2.90;99.90;;;;;;5055271;28;20021;-71
2021/12/03 08:25:50;;;;;;;73.45;28.52;;;3.00;99.90;;;;;;5055605;28;20017;-71
2021/12/03 08:28:16;;;;;;;70.55;29.92;;;3.00;99.90;;;;;;5056193;28;20484;-67
2021/12/03 08:30:41;;;;;;;68.00;28.58;;;3.00;99.90;;;;;;5056516;28;20462;-67
2021/12/03 08:33:07;;;;;;;66.72;27.50;;;3.00;99.90;;;;;;5055371;28;20096;-67
2021/12/03 08:35:32;;;;;;;65.90;28.40;;;3.00;99.90;;;;;;5035066;28;20072;-67
2021/12/03 08:37:58;;;;;;;61.22;27.10;;;3.10;99.90;;;;;;5047418;28;20020;-67
2021/12/03 08:40:24;;;;;;;64.47;26.60;;;3.10;99.90;;;;;;5060831;28;20112;-67
2021/12/03 08:42:50;;;;;;;60.80;27.88;;;3.10;99.90;;;;;;5055713;28;20082;-67
2021/12/03 08:45:18;;;;;;;62.35;27.10;;;3.20;99.90;;;;;;5055399;28;20045;-68
2021/12/03 08:47:49;;;;;;;67.50;26.35;;;3.20;99.90;;;;;;5039160;28;20032;-68
2021/12/03 08:50:18;;;;;;;62.17;26.10;;;3.20;99.90;;;;;;5037643;28;20482;-68
2021/12/03 08:55:13;;;;;;;62.42;28.20;;;3.30;99.90;;;;;;5054468;28;20017;-66
2021/12/03 08:57:39;;;;;;;66.70;28.27;;;3.30;99.90;;;;;;5054515;28;20101;-68
2021/12/03 09:00:11;;;;;;;61.40;26.80;;;3.30;99.90;;;;;;5055613;28;20036;-66
2021/12/03 09:02:37;;;;;;;67.22;27.27;;;3.30;99.90;;;;;;5055178;28;20154;-66
2021/12/03 09:05:03;;;;;;;59.60;26.67;;;3.40;99.90;;;;;;5053563;28;20032;-66
2021/12/03 09:07:29;;;;;;;55.00;27.17;;;3.40;99.90;;;;;;5038231;28;20029;-66
2021/12/03 09:09:55;;;;;;;59.70;26.63;;;3.40;99.90;;;;;;5054226;28;20035;-68
2021/12/03 09:12:20;;;;;;;63.15;25.77;;;3.40;99.90;;;;;;5037299;28;20033;-68
2021/12/03 09:14:52;;;;;;;58.00;27.05;;;3.50;99.90;;;;;;5054000;28;20021;-68
2021/12/03 09:18:04;;;;;;;57.53;25.67;;;3.50;99.90;;;;;;5049249;28;20020;-68
2021/12/03 09:20:22;;;;;;;61.03;26.02;;;3.50;99.90;;;;;;5053462;28;20562;-68
2021/12/03 09:22:51;;;;;;;54.33;24.45;;;3.50;99.90;;;;;;5055696;28;20067;-68
2021/12/03 09:25:23;;;;;;;63.15;25.58;;;3.60;99.90;;;;;;5055466;28;20025;-68
2021/12/03 09:27:49;;;;;;;52.50;25.10;;;3.60;99.90;;;;;;5054350;28;20048;-68
2021/12/03 09:30:15;;;;;;;58.42;24.58;;;3.60;99.90;;;;;;5020645;28;20068;-68
2021/12/03 09:32:47;;;;;;;51.58;22.35;;;3.80;99.90;;;;;;5037007;28;20059;-68
2021/12/03 09:35:13;;;;;;;52.75;20.92;;;3.80;99.90;;;;;;5054025;28;20029;-68
2021/12/03 09:37:38;;;;;;;41.05;19.48;;;3.90;99.90;;;;;;5055486;28;20025;-68
2021/12/03 09:40:06;;;;;;;45.17;18.70;;;3.90;99.90;;;;;;5054852;28;20065;-68
2021/12/03 09:42:36;;;;;;;41.25;16.08;;;4.00;99.90;;;;;;5054077;28;20025;-68
2021/12/03 09:45:04;;;;;;;39.25;14.90;;;4.00;99.90;;;;;;5054779;28;20032;-67
2021/12/03 09:47:30;;;;;;;37.53;15.63;;;4.00;99.90;;;;;;5054195;28;20025;-68
2021/12/03 09:49:58;;;;;;;31.77;14.00;;;4.10;99.90;;;;;;5034175;28;20025;-67
2021/12/03 09:55:12;;;;;;;33.13;13.25;;;4.10;99.90;;;;;;5053442;28;20029;-67
2021/12/03 09:57:43;;;;;;;29.60;11.30;;;4.20;99.90;;;;;;5055077;28;20051;-68
2021/12/03 10:00:20;;;;;;;28.00;11.25;;;4.20;99.90;;;;;;5037094;28;20033;-67
2021/12/03 10:03:03;;;;;;;27.13;9.63;;;4.10;99.90;;;;;;5034570;28;20025;-68
2021/12/03 10:11:43;;;;;;;22.33;8.68;;;4.20;99.90;;;;;;5053247;28;20396;-67
2021/12/03 10:14:10;;;;;;;22.55;9.23;;;4.20;99.90;;;;;;5051935;28;20158;-67
2021/12/03 10:19:24;;;;;;;24.52;9.25;;;4.20;99.90;;;;;;5053026;28;20394;-67
2021/12/03 10:24:50;;;;;;;23.42;9.75;;;4.20;99.90;;;;;;5054001;28;20059;-67
2021/12/03 10:33:29;;;;;;;21.17;9.63;;;4.20;99.90;;;;;;5110684;27;20446;-66
2021/12/03 10:41:33;;;;;;;25.05;10.25;;;4.10;99.90;;;;;;5095147;28;20024;-68
2021/12/03 10:49:46;;;;;;;25.60;9.50;;;4.20;99.90;;;;;;5110782;28;20102;-69
2021/12/03 10:52:22;;;;;;;21.25;9.13;;;4.20;99.90;;;;;;5080078;28;20362;-66
2021/12/03 10:58:08;;;;;;;21.50;8.13;;;4.20;99.90;;;;;;5090184;28;20047;-68
2021/12/03 11:03:32;;;;;;;24.33;7.70;;;4.20;99.90;;;;;;5090614;28;20032;-68
2021/12/03 11:12:11;;;;;;;21.95;7.05;;;4.40;99.90;;;;;;5099901;28;20108;-67
2021/12/03 11:15:06;;;;;;;18.97;6.00;;;4.40;99.90;;;;;;5104265;28;20024;-67
2021/12/03 11:31:19;;;;;;;18.05;6.05;;;4.80;99.90;;;;;;5086687;28;20252;-67
2021/12/03 11:36:53;;;;;;;17.33;6.30;;;4.80;99.90;;;;;;5087632;28;20056;-68
2021/12/03 11:43:09;;;;;;;21.10;5.90;;;4.80;99.90;;;;;;5098366;28;20503;-68
2021/12/03 11:55:25;;;;;;;16.80;5.10;;;4.70;99.90;;;;;;5073599;28;20059;-67
2021/12/03 12:06:21;;;;;;;20.73;5.45;;;4.60;99.90;;;;;;5110804;27;20367;-67
2021/12/03 12:11:39;;;;;;;17.45;5.53;;;4.50;99.90;;;;;;5100821;28;20024;-67
2021/12/03 12:17:14;;;;;;;17.08;6.03;;;4.60;99.90;;;;;;5089991;28;20042;-67
2021/12/03 12:25:03;;;;;;;14.98;5.32;;;4.50;99.90;;;;;;5113545;28;20550;-67
2021/12/03 12:36:48;;;;;;;20.40;5.38;;;4.60;99.90;;;;;;5114080;28;20027;-68
2021/12/03 12:42:04;;;;;;;21.08;5.25;;;4.70;99.90;;;;;;5109875;28;20089;-68
2021/12/03 12:44:36;;;;;;;16.17;4.75;;;4.70;99.90;;;;;;5110913;28;20020;-67
2021/12/03 12:56:21;;;;;;;17.63;5.18;;;4.50;99.90;;;;;;5130955;28;20016;-67
2021/12/03 13:12:34;;;;;;;18.40;5.18;;;4.60;99.90;;;;;;5115512;28;20035;-67
2021/12/03 13:18:11;;;;;;;19.98;5.13;;;4.60;99.90;;;;;;5115516;28;20015;-67
2021/12/03 13:21:09;;;;;;;14.68;4.13;;;4.60;99.90;;;;;;5130754;28;20025;-67
2021/12/03 13:26:33;;;;;;;18.90;5.40;;;4.60;99.90;;;;;;5130336;28;20365;-67
2021/12/03 13:30:53;;;;;;;11.10;4.75;;;4.60;99.90;;;;;;5114704;28;20019;-67
2021/12/03 13:35:20;;;;;;;13.10;4.72;;;4.60;99.90;;;;;;5109995;28;20030;-68
2021/12/03 13:40:58;;;;;;;16.75;4.75;;;4.60;99.90;;;;;;5114898;28;20499;-67
2021/12/03 13:46:41;;;;;;;11.48;4.53;;;4.60;99.90;;;;;;5116457;28;20028;-67
2021/12/03 13:56:56;;;;;;;17.70;5.53;;;4.60;99.90;;;;;;5116282;28;20392;-67
2021/12/03 13:59:38;;;;;;;14.35;5.20;;;4.60;99.90;;;;;;5101150;28;20023;-67
2021/12/03 14:05:12;;;;;;;10.65;5.05;;;4.60;99.90;;;;;;5080801;28;20488;-67
2021/12/03 14:07:38;;;;;;;13.00;5.18;;;4.70;99.90;;;;;;5105674;28;20043;-67
2021/12/03 14:11:03;;;;;;;13.45;4.70;;;4.60;99.90;;;;;;5098354;28;20490;-67
2021/12/03 14:19:23;;;;;;;13.73;5.28;;;4.70;99.90;;;;;;5115437;28;20230;-67
2021/12/03 14:23:34;;;;;;;15.23;5.20;;;4.70;99.90;;;;;;5086140;28;20432;-67
2021/12/03 14:31:37;;;;;;;9.98;4.57;;;4.70;99.90;;;;;;5100548;28;20034;-72
2021/12/03 14:36:07;;;;;;;10.95;4.65;;;4.80;99.90;;;;;;5116118;28;20030;-67
2021/12/03 14:43:33;;;;;;;11.18;4.50;;;4.80;99.90;;;;;;5111996;27;20115;-70
2021/12/03 14:46:20;;;;;;;9.23;4.50;;;4.80;99.90;;;;;;5094105;28;20023;-71
2021/12/03 14:49:33;;;;;;;18.55;7.20;;;4.80;99.90;;;;;;5110111;28;20384;-70
2021/12/03 14:51:54;;;;;;;10.55;4.05;;;4.80;99.90;;;;;;5110923;28;20069;-70
2021/12/03 14:54:59;;;;;;;10.85;4.65;;;4.80;99.90;;;;;;5110951;28;20024;-71
2021/12/03 14:57:18;;;;;;;13.10;4.13;;;4.70;99.90;;;;;;5110801;28;20107;-70
2021/12/03 15:00:12;;;;;;;10.70;4.57;;;4.70;99.90;;;;;;5109392;28;20023;-67
2021/12/03 15:03:07;;;;;;;11.43;4.55;;;4.70;99.90;;;;;;5109591;28;20047;-67
2021/12/03 15:06:26;;;;;;;11.23;4.50;;;4.70;99.90;;;;;;5110874;28;20513;-67
2021/12/03 15:08:38;;;;;;;11.57;4.20;;;4.70;99.90;;;;;;5110758;28;20085;-68
2021/12/03 15:14:27;;;;;;;8.52;3.38;;;4.70;99.90;;;;;;5109610;28;20032;-68
2021/12/03 15:22:18;;;;;;;9.05;3.70;;;4.70;99.90;;;;;;5110387;28;20053;-67
2021/12/03 15:27:48;;;;;;;8.50;3.58;;;4.70;99.90;;;;;;5110350;28;20035;-67
2021/12/03 15:30:26;;;;;;;12.77;3.95;;;4.70;99.90;;;;;;5109835;28;20026;-67
2021/12/03 15:33:29;;;;;;;8.30;3.75;;;4.70;99.90;;;;;;5111183;28;20016;-67
2021/12/03 15:35:50;;;;;;;12.18;3.70;;;4.70;99.90;;;;;;5110124;28;20024;-68
2021/12/03 15:39:00;;;;;;;12.27;3.95;;;4.70;99.90;;;;;;5109090;28;20114;-68
2021/12/03 15:51:54;;;;;;;9.35;3.80;;;4.60;99.90;;;;;;5109983;28;20028;-68
2021/12/03 15:52:38;;;;;;;16.13;5.25;;;4.60;99.90;;;;;;5108942;28;20409;-68
2021/12/03 15:57:27;;;;;;;10.43;4.68;;;4.60;99.90;;;;;;5096320;28;20024;-67
2021/12/03 16:08:14;;;;;;;8.75;4.35;;;4.60;99.90;;;;;;5071643;28;20407;-67
2021/12/03 16:13:44;;;;;;;10.18;3.97;;;4.60;99.90;;;;;;5070537;28;20032;-67